sensor_id;sensor_type;location;lat;lon;timestamp;P1;durP1;ratioP1;P2;durP2;ratioP2
45618;SDS011;31343;47.520;19.144;2022-11-25T00:01:04;22.52;;;12.32;;
45618;SDS011;31343;47.520;19.144;2022-11-25T00:03:41;27.15;;;14.25;;
45618;SDS011;31343;47.520;19.144;2022-11-25T00:06:08;25.95;;;14.43;;
45618;SDS011;31343;47.520;19.144;2022-11-25T00:08:35;23.20;;;12.40;;
45618;SDS011;31343;47.520;19.144;2022-11-25T00:11:01;27.38;;;14.95;;
45618;SDS011;31343;47.520;19.144;2022-11-25T00:13:27;22.27;;;12.45;;
45618;SDS011;31343;47.520;19.144;2022-11-25T00:15:53;27.23;;;13.73;;
45618;SDS011;31343;47.520;19.144;2022-11-25T00:18:19;23.65;;;12.40;;
45618;SDS011;31343;47.520;19.144;2022-11-25T00:20:44;25.98;;;12.50;;
45618;SDS011;31343;47.520;19.144;2022-11-25T00:23:10;21.70;;;12.40;;
45618;SDS011;31343;47.520;19.144;2022-11-25T00:25:36;27.08;;;14.15;;
45618;SDS011;31343;47.520;19.144;2022-11-25T00:28:01;27.70;;;13.75;;
45618;SDS011;31343;47.520;19.144;2022-11-25T00:30:27;24.70;;;14.40;;
45618;SDS011;31343;47.520;19.144;2022-11-25T00:32:53;26.17;;;12.95;;
45618;SDS011;31343;47.520;19.144;2022-11-25T00:35:19;29.60;;;14.88;;
45618;SDS011;31343;47.520;19.144;2022-11-25T00:37:45;27.30;;;14.52;;
45618;SDS011;31343;47.520;19.144;2022-11-25T00:40:11;28.25;;;14.40;;
45618;SDS011;31343;47.520;19.144;2022-11-25T00:42:37;23.63;;;14.02;;
45618;SDS011;31343;47.520;19.144;2022-11-25T00:45:21;26.30;;;14.13;;
45618;SDS011;31343;47.520;19.144;2022-11-25T00:47:47;28.70;;;15.18;;
45618;SDS011;31343;47.520;19.144;2022-11-25T00:50:13;23.05;;;14.05;;
45618;SDS011;31343;47.520;19.144;2022-11-25T00:52:38;27.02;;;13.98;;
45618;SDS011;31343;47.520;19.144;2022-11-25T00:55:04;26.55;;;13.82;;
45618;SDS011;31343;47.520;19.144;2022-11-25T00:57:30;25.60;;;14.63;;
45618;SDS011;31343;47.520;19.144;2022-11-25T00:59:56;28.08;;;14.32;;
45618;SDS011;31343;47.520;19.144;2022-11-25T01:02:21;32.53;;;16.05;;
45618;SDS011;31343;47.520;19.144;2022-11-25T01:04:47;28.20;;;15.07;;
45618;SDS011;31343;47.520;19.144;2022-11-25T01:07:14;25.58;;;14.68;;
45618;SDS011;31343;47.520;19.144;2022-11-25T01:09:40;26.48;;;15.13;;
45618;SDS011;31343;47.520;19.144;2022-11-25T01:12:05;26.55;;;13.15;;
45618;SDS011;31343;47.520;19.144;2022-11-25T01:14:31;28.38;;;15.68;;
45618;SDS011;31343;47.520;19.144;2022-11-25T01:16:58;24.23;;;13.75;;
45618;SDS011;31343;47.520;19.144;2022-11-25T01:19:24;24.90;;;14.13;;
45618;SDS011;31343;47.520;19.144;2022-11-25T01:21:50;28.55;;;14.52;;
45618;SDS011;31343;47.520;19.144;2022-11-25T01:24:16;24.50;;;13.05;;
45618;SDS011;31343;47.520;19.144;2022-11-25T01:26:42;25.10;;;14.60;;
45618;SDS011;31343;47.520;19.144;2022-11-25T01:29:15;30.55;;;13.95;;
45618;SDS011;31343;47.520;19.144;2022-11-25T01:31:43;27.15;;;14.32;;
45618;SDS011;31343;47.520;19.144;2022-11-25T01:34:16;27.00;;;13.63;;
45618;SDS011;31343;47.520;19.144;2022-11-25T01:36:46;25.05;;;14.68;;
45618;SDS011;31343;47.520;19.144;2022-11-25T01:39:15;25.00;;;14.65;;
45618;SDS011;31343;47.520;19.144;2022-11-25T01:41:48;28.65;;;13.43;;
45618;SDS011;31343;47.520;19.144;2022-11-25T01:44:18;27.00;;;13.82;;
45618;SDS011;31343;47.520;19.144;2022-11-25T01:46:47;26.02;;;14.38;;
45618;SDS011;31343;47.520;19.144;2022-11-25T01:49:46;26.20;;;14.07;;
45618;SDS011;31343;47.520;19.144;2022-11-25T01:52:30;25.90;;;13.68;;
45618;SDS011;31343;47.520;19.144;2022-11-25T01:55:11;28.02;;;13.15;;
45618;SDS011;31343;47.520;19.144;2022-11-25T01:57:43;29.05;;;13.57;;
45618;SDS011;31343;47.520;19.144;2022-11-25T02:00:15;27.48;;;14.63;;
45618;SDS011;31343;47.520;19.144;2022-11-25T02:02:41;24.73;;;13.35;;
45618;SDS011;31343;47.520;19.144;2022-11-25T02:05:08;27.33;;;14.63;;
45618;SDS011;31343;47.520;19.144;2022-11-25T02:07:37;25.58;;;13.65;;
45618;SDS011;31343;47.520;19.144;2022-11-25T02:10:07;25.02;;;14.20;;
45618;SDS011;31343;47.520;19.144;2022-11-25T02:12:39;25.17;;;14.23;;
45618;SDS011;31343;47.520;19.144;2022-11-25T02:15:06;30.45;;;14.27;;
45618;SDS011;31343;47.520;19.144;2022-11-25T02:17:32;27.48;;;14.85;;
45618;SDS011;31343;47.520;19.144;2022-11-25T02:20:05;30.98;;;15.73;;
45618;SDS011;31343;47.520;19.144;2022-11-25T02:25:14;22.65;;;13.60;;
45618;SDS011;31343;47.520;19.144;2022-11-25T02:27:45;23.23;;;13.73;;
45618;SDS011;31343;47.520;19.144;2022-11-25T02:30:15;24.75;;;14.35;;
45618;SDS011;31343;47.520;19.144;2022-11-25T02:32:45;24.23;;;13.63;;
45618;SDS011;31343;47.520;19.144;2022-11-25T02:37:47;27.73;;;15.07;;
45618;SDS011;31343;47.520;19.144;2022-11-25T02:40:13;27.55;;;15.02;;
45618;SDS011;31343;47.520;19.144;2022-11-25T02:42:39;32.15;;;14.20;;
45618;SDS011;31343;47.520;19.144;2022-11-25T02:45:06;29.65;;;13.45;;
45618;SDS011;31343;47.520;19.144;2022-11-25T02:47:36;31.58;;;15.35;;
45618;SDS011;31343;47.520;19.144;2022-11-25T02:50:02;27.05;;;14.98;;
45618;SDS011;31343;47.520;19.144;2022-11-25T02:52:28;27.33;;;13.95;;
45618;SDS011;31343;47.520;19.144;2022-11-25T02:54:53;26.35;;;14.88;;
45618;SDS011;31343;47.520;19.144;2022-11-25T02:57:19;23.42;;;13.50;;
45618;SDS011;31343;47.520;19.144;2022-11-25T02:59:44;25.08;;;13.70;;
45618;SDS011;31343;47.520;19.144;2022-11-25T03:02:10;27.42;;;14.60;;
45618;SDS011;31343;47.520;19.144;2022-11-25T03:04:36;31.42;;;14.48;;
45618;SDS011;31343;47.520;19.144;2022-11-25T03:07:01;31.20;;;14.65;;
45618;SDS011;31343;47.520;19.144;2022-11-25T03:09:27;29.95;;;14.23;;
45618;SDS011;31343;47.520;19.144;2022-11-25T03:11:53;24.92;;;13.93;;
45618;SDS011;31343;47.520;19.144;2022-11-25T03:14:37;27.83;;;14.75;;
45618;SDS011;31343;47.520;19.144;2022-11-25T03:17:03;27.17;;;14.60;;
45618;SDS011;31343;47.520;19.144;2022-11-25T03:19:28;24.88;;;12.63;;
45618;SDS011;31343;47.520;19.144;2022-11-25T03:21:54;26.05;;;14.20;;
45618;SDS011;31343;47.520;19.144;2022-11-25T03:24:20;29.67;;;15.35;;
45618;SDS011;31343;47.520;19.144;2022-11-25T03:26:45;30.02;;;15.70;;
45618;SDS011;31343;47.520;19.144;2022-11-25T03:29:11;27.00;;;13.35;;
45618;SDS011;31343;47.520;19.144;2022-11-25T03:31:37;26.45;;;14.43;;
45618;SDS011;31343;47.520;19.144;2022-11-25T03:34:02;23.13;;;12.32;;
45618;SDS011;31343;47.520;19.144;2022-11-25T03:36:28;26.35;;;14.50;;
45618;SDS011;31343;47.520;19.144;2022-11-25T03:38:53;25.17;;;13.07;;
45618;SDS011;31343;47.520;19.144;2022-11-25T03:41:19;28.05;;;14.55;;
45618;SDS011;31343;47.520;19.144;2022-11-25T03:43:45;25.70;;;14.38;;
45618;SDS011;31343;47.520;19.144;2022-11-25T03:46:11;27.80;;;14.77;;
45618;SDS011;31343;47.520;19.144;2022-11-25T03:48:36;25.23;;;13.65;;
45618;SDS011;31343;47.520;19.144;2022-11-25T03:51:02;26.67;;;13.98;;
45618;SDS011;31343;47.520;19.144;2022-11-25T03:53:28;24.63;;;13.18;;
45618;SDS011;31343;47.520;19.144;2022-11-25T03:55:54;32.35;;;13.57;;
45618;SDS011;31343;47.520;19.144;2022-11-25T03:58:19;24.52;;;13.43;;
45618;SDS011;31343;47.520;19.144;2022-11-25T04:00:45;24.10;;;12.45;;
45618;SDS011;31343;47.520;19.144;2022-11-25T04:03:10;25.58;;;13.45;;
45618;SDS011;31343;47.520;19.144;2022-11-25T04:05:36;24.27;;;12.30;;
45618;SDS011;31343;47.520;19.144;2022-11-25T04:08:02;23.35;;;11.90;;
45618;SDS011;31343;47.520;19.144;2022-11-25T04:10:27;26.95;;;13.48;;
45618;SDS011;31343;47.520;19.144;2022-11-25T04:12:53;24.48;;;13.00;;
45618;SDS011;31343;47.520;19.144;2022-11-25T04:15:19;22.02;;;12.80;;
45618;SDS011;31343;47.520;19.144;2022-11-25T04:17:44;27.02;;;13.40;;
45618;SDS011;31343;47.520;19.144;2022-11-25T04:20:10;25.80;;;13.82;;
45618;SDS011;31343;47.520;19.144;2022-11-25T04:22:37;24.75;;;14.43;;
45618;SDS011;31343;47.520;19.144;2022-11-25T04:25:03;27.98;;;15.23;;
45618;SDS011;31343;47.520;19.144;2022-11-25T04:27:29;27.10;;;12.65;;
45618;SDS011;31343;47.520;19.144;2022-11-25T04:29:55;26.75;;;13.82;;
45618;SDS011;31343;47.520;19.144;2022-11-25T04:32:21;27.42;;;13.65;;
45618;SDS011;31343;47.520;19.144;2022-11-25T04:34:46;24.92;;;13.00;;
45618;SDS011;31343;47.520;19.144;2022-11-25T04:37:12;27.27;;;14.02;;
45618;SDS011;31343;47.520;19.144;2022-11-25T04:39:38;25.90;;;13.63;;
45618;SDS011;31343;47.520;19.144;2022-11-25T04:42:05;28.17;;;13.82;;
45618;SDS011;31343;47.520;19.144;2022-11-25T04:44:50;27.20;;;14.20;;
45618;SDS011;31343;47.520;19.144;2022-11-25T04:47:15;26.70;;;13.57;;
45618;SDS011;31343;47.520;19.144;2022-11-25T04:49:41;24.92;;;13.85;;
45618;SDS011;31343;47.520;19.144;2022-11-25T04:52:06;27.77;;;13.32;;
45618;SDS011;31343;47.520;19.144;2022-11-25T04:54:32;29.17;;;14.77;;
45618;SDS011;31343;47.520;19.144;2022-11-25T04:56:58;37.70;;;17.27;;
45618;SDS011;31343;47.520;19.144;2022-11-25T04:59:23;33.20;;;16.70;;
45618;SDS011;31343;47.520;19.144;2022-11-25T05:02:14;27.88;;;14.82;;
45618;SDS011;31343;47.520;19.144;2022-11-25T05:04:48;27.65;;;14.68;;
45618;SDS011;31343;47.520;19.144;2022-11-25T05:07:17;30.65;;;15.30;;
45618;SDS011;31343;47.520;19.144;2022-11-25T05:09:44;30.88;;;16.67;;
45618;SDS011;31343;47.520;19.144;2022-11-25T05:12:11;40.90;;;21.15;;
45618;SDS011;31343;47.520;19.144;2022-11-25T05:14:38;34.22;;;18.10;;
45618;SDS011;31343;47.520;19.144;2022-11-25T05:17:05;27.92;;;16.45;;
45618;SDS011;31343;47.520;19.144;2022-11-25T05:19:31;27.88;;;14.85;;
45618;SDS011;31343;47.520;19.144;2022-11-25T05:21:57;28.52;;;15.02;;
45618;SDS011;31343;47.520;19.144;2022-11-25T05:24:24;28.40;;;14.85;;
45618;SDS011;31343;47.520;19.144;2022-11-25T05:26:50;31.05;;;14.98;;
45618;SDS011;31343;47.520;19.144;2022-11-25T05:29:16;31.65;;;16.90;;
45618;SDS011;31343;47.520;19.144;2022-11-25T05:31:41;30.90;;;14.30;;
45618;SDS011;31343;47.520;19.144;2022-11-25T05:34:07;28.02;;;15.73;;
45618;SDS011;31343;47.520;19.144;2022-11-25T05:36:33;32.35;;;15.23;;
45618;SDS011;31343;47.520;19.144;2022-11-25T05:38:59;30.10;;;15.40;;
45618;SDS011;31343;47.520;19.144;2022-11-25T05:41:24;27.05;;;14.13;;
45618;SDS011;31343;47.520;19.144;2022-11-25T05:43:51;30.45;;;14.70;;
45618;SDS011;31343;47.520;19.144;2022-11-25T05:46:16;28.25;;;13.93;;
45618;SDS011;31343;47.520;19.144;2022-11-25T05:48:43;27.60;;;14.10;;
45618;SDS011;31343;47.520;19.144;2022-11-25T05:51:09;28.75;;;15.23;;
45618;SDS011;31343;47.520;19.144;2022-11-25T05:53:35;32.63;;;16.10;;
45618;SDS011;31343;47.520;19.144;2022-11-25T05:56:02;27.83;;;14.02;;
45618;SDS011;31343;47.520;19.144;2022-11-25T05:58:30;26.73;;;13.80;;
45618;SDS011;31343;47.520;19.144;2022-11-25T06:00:56;24.75;;;13.85;;
45618;SDS011;31343;47.520;19.144;2022-11-25T06:03:25;26.27;;;15.95;;
45618;SDS011;31343;47.520;19.144;2022-11-25T06:05:54;27.17;;;15.18;;
45618;SDS011;31343;47.520;19.144;2022-11-25T06:08:21;30.55;;;18.33;;
45618;SDS011;31343;47.520;19.144;2022-11-25T06:10:46;33.13;;;16.92;;
45618;SDS011;31343;47.520;19.144;2022-11-25T06:13:12;31.50;;;16.48;;
45618;SDS011;31343;47.520;19.144;2022-11-25T06:15:41;30.48;;;15.52;;
45618;SDS011;31343;47.520;19.144;2022-11-25T06:18:09;36.35;;;18.50;;
45618;SDS011;31343;47.520;19.144;2022-11-25T06:20:35;34.70;;;18.25;;
45618;SDS011;31343;47.520;19.144;2022-11-25T06:23:01;31.13;;;16.98;;
45618;SDS011;31343;47.520;19.144;2022-11-25T06:25:27;37.30;;;16.98;;
45618;SDS011;31343;47.520;19.144;2022-11-25T06:27:53;32.70;;;17.88;;
45618;SDS011;31343;47.520;19.144;2022-11-25T06:30:19;33.15;;;19.02;;
45618;SDS011;31343;47.520;19.144;2022-11-25T06:32:45;28.58;;;16.35;;
45618;SDS011;31343;47.520;19.144;2022-11-25T06:35:10;34.88;;;18.40;;
45618;SDS011;31343;47.520;19.144;2022-11-25T06:37:36;31.77;;;16.70;;
45618;SDS011;31343;47.520;19.144;2022-11-25T06:40:02;32.67;;;17.40;;
45618;SDS011;31343;47.520;19.144;2022-11-25T06:42:29;28.67;;;16.33;;
45618;SDS011;31343;47.520;19.144;2022-11-25T06:44:54;29.63;;;16.50;;
45618;SDS011;31343;47.520;19.144;2022-11-25T06:47:20;27.02;;;15.50;;
45618;SDS011;31343;47.520;19.144;2022-11-25T06:49:46;26.90;;;16.40;;
45618;SDS011;31343;47.520;19.144;2022-11-25T06:52:12;28.45;;;18.60;;
45618;SDS011;31343;47.520;19.144;2022-11-25T06:54:37;31.55;;;17.70;;
45618;SDS011;31343;47.520;19.144;2022-11-25T06:57:08;35.08;;;18.83;;
45618;SDS011;31343;47.520;19.144;2022-11-25T06:59:35;30.55;;;17.05;;
45618;SDS011;31343;47.520;19.144;2022-11-25T07:02:01;34.50;;;19.58;;
45618;SDS011;31343;47.520;19.144;2022-11-25T07:04:28;35.63;;;20.05;;
45618;SDS011;31343;47.520;19.144;2022-11-25T07:06:53;35.72;;;19.77;;
45618;SDS011;31343;47.520;19.144;2022-11-25T07:09:19;32.00;;;19.35;;
45618;SDS011;31343;47.520;19.144;2022-11-25T07:11:46;30.67;;;17.60;;
45618;SDS011;31343;47.520;19.144;2022-11-25T07:14:14;34.47;;;18.98;;
45618;SDS011;31343;47.520;19.144;2022-11-25T07:16:41;35.05;;;18.38;;
45618;SDS011;31343;47.520;19.144;2022-11-25T07:19:09;31.25;;;19.25;;
45618;SDS011;31343;47.520;19.144;2022-11-25T07:21:36;34.10;;;19.05;;
45618;SDS011;31343;47.520;19.144;2022-11-25T07:24:03;31.52;;;18.13;;
45618;SDS011;31343;47.520;19.144;2022-11-25T07:26:31;36.50;;;18.75;;
45618;SDS011;31343;47.520;19.144;2022-11-25T07:28:59;32.55;;;18.92;;
45618;SDS011;31343;47.520;19.144;2022-11-25T07:31:30;38.50;;;19.55;;
45618;SDS011;31343;47.520;19.144;2022-11-25T07:34:04;33.25;;;18.75;;
45618;SDS011;31343;47.520;19.144;2022-11-25T07:36:36;32.80;;;17.30;;
45618;SDS011;31343;47.520;19.144;2022-11-25T07:39:05;33.85;;;18.38;;
45618;SDS011;31343;47.520;19.144;2022-11-25T07:41:33;33.55;;;19.17;;
45618;SDS011;31343;47.520;19.144;2022-11-25T07:44:00;31.85;;;17.70;;
45618;SDS011;31343;47.520;19.144;2022-11-25T07:46:29;34.97;;;17.90;;
45618;SDS011;31343;47.520;19.144;2022-11-25T07:49:04;34.15;;;17.27;;
45618;SDS011;31343;47.520;19.144;2022-11-25T07:51:33;31.13;;;16.42;;
45618;SDS011;31343;47.520;19.144;2022-11-25T07:54:01;34.80;;;17.65;;
45618;SDS011;31343;47.520;19.144;2022-11-25T07:56:29;31.52;;;17.20;;
45618;SDS011;31343;47.520;19.144;2022-11-25T07:58:55;34.75;;;19.48;;
45618;SDS011;31343;47.520;19.144;2022-11-25T08:01:22;28.52;;;15.95;;
45618;SDS011;31343;47.520;19.144;2022-11-25T08:03:49;31.45;;;16.63;;
45618;SDS011;31343;47.520;19.144;2022-11-25T08:06:20;33.00;;;18.23;;
45618;SDS011;31343;47.520;19.144;2022-11-25T08:08:47;29.58;;;17.98;;
45618;SDS011;31343;47.520;19.144;2022-11-25T08:11:15;31.45;;;16.88;;
45618;SDS011;31343;47.520;19.144;2022-11-25T08:13:43;31.50;;;17.83;;
45618;SDS011;31343;47.520;19.144;2022-11-25T08:16:09;32.15;;;18.38;;
45618;SDS011;31343;47.520;19.144;2022-11-25T08:18:37;31.42;;;16.02;;
45618;SDS011;31343;47.520;19.144;2022-11-25T08:21:04;27.92;;;16.95;;
45618;SDS011;31343;47.520;19.144;2022-11-25T08:23:33;28.10;;;16.15;;
45618;SDS011;31343;47.520;19.144;2022-11-25T08:26:03;31.45;;;14.73;;
45618;SDS011;31343;47.520;19.144;2022-11-25T08:28:30;31.98;;;16.63;;
45618;SDS011;31343;47.520;19.144;2022-11-25T08:31:06;28.83;;;14.55;;
45618;SDS011;31343;47.520;19.144;2022-11-25T08:33:36;26.20;;;15.02;;
45618;SDS011;31343;47.520;19.144;2022-11-25T08:36:02;32.65;;;16.27;;
45618;SDS011;31343;47.520;19.144;2022-11-25T08:38:29;28.58;;;15.10;;
45618;SDS011;31343;47.520;19.144;2022-11-25T08:40:54;24.05;;;14.32;;
45618;SDS011;31343;47.520;19.144;2022-11-25T08:43:21;28.38;;;15.75;;
45618;SDS011;31343;47.520;19.144;2022-11-25T08:45:47;27.35;;;14.88;;
45618;SDS011;31343;47.520;19.144;2022-11-25T08:48:14;24.52;;;13.18;;
45618;SDS011;31343;47.520;19.144;2022-11-25T08:50:44;23.50;;;13.27;;
45618;SDS011;31343;47.520;19.144;2022-11-25T08:53:12;20.35;;;11.63;;
45618;SDS011;31343;47.520;19.144;2022-11-25T08:55:38;26.52;;;12.07;;
45618;SDS011;31343;47.520;19.144;2022-11-25T08:58:04;22.63;;;13.05;;
45618;SDS011;31343;47.520;19.144;2022-11-25T09:00:34;23.02;;;13.13;;
45618;SDS011;31343;47.520;19.144;2022-11-25T09:03:01;21.98;;;11.45;;
45618;SDS011;31343;47.520;19.144;2022-11-25T09:05:26;21.83;;;12.32;;
45618;SDS011;31343;47.520;19.144;2022-11-25T09:07:52;19.48;;;10.70;;
45618;SDS011;31343;47.520;19.144;2022-11-25T09:10:20;20.90;;;12.00;;
45618;SDS011;31343;47.520;19.144;2022-11-25T09:12:45;23.55;;;11.65;;
45618;SDS011;31343;47.520;19.144;2022-11-25T09:15:11;20.65;;;9.88;;
45618;SDS011;31343;47.520;19.144;2022-11-25T09:17:37;25.60;;;11.65;;
45618;SDS011;31343;47.520;19.144;2022-11-25T09:20:03;23.20;;;10.98;;
45618;SDS011;31343;47.520;19.144;2022-11-25T09:22:30;18.65;;;10.85;;
45618;SDS011;31343;47.520;19.144;2022-11-25T09:24:56;21.35;;;11.52;;
45618;SDS011;31343;47.520;19.144;2022-11-25T09:27:22;29.45;;;14.70;;
45618;SDS011;31343;47.520;19.144;2022-11-25T09:29:48;24.70;;;14.10;;
45618;SDS011;31343;47.520;19.144;2022-11-25T09:32:13;24.00;;;14.15;;
45618;SDS011;31343;47.520;19.144;2022-11-25T09:34:39;24.17;;;13.90;;
45618;SDS011;31343;47.520;19.144;2022-11-25T09:37:04;28.30;;;13.40;;
45618;SDS011;31343;47.520;19.144;2022-11-25T09:39:30;24.98;;;12.73;;
45618;SDS011;31343;47.520;19.144;2022-11-25T09:47:57;25.63;;;13.15;;
45618;SDS011;31343;47.520;19.144;2022-11-25T09:59:18;21.98;;;12.20;;
45618;SDS011;31343;47.520;19.144;2022-11-25T10:01:49;24.40;;;12.30;;
45618;SDS011;31343;47.520;19.144;2022-11-25T10:09:26;18.70;;;10.88;;
45618;SDS011;31343;47.520;19.144;2022-11-25T10:11:59;24.75;;;12.80;;
45618;SDS011;31343;47.520;19.144;2022-11-25T10:14:44;20.30;;;11.23;;
45618;SDS011;31343;47.520;19.144;2022-11-25T10:23:11;21.50;;;11.90;;
45618;SDS011;31343;47.520;19.144;2022-11-25T10:25:45;19.25;;;9.98;;
45618;SDS011;31343;47.520;19.144;2022-11-25T10:28:17;22.52;;;11.38;;
45618;SDS011;31343;47.520;19.144;2022-11-25T10:33:27;17.42;;;9.80;;
45618;SDS011;31343;47.520;19.144;2022-11-25T10:40:57;18.77;;;10.27;;
45618;SDS011;31343;47.520;19.144;2022-11-25T10:43:24;16.83;;;10.30;;
45618;SDS011;31343;47.520;19.144;2022-11-25T10:48:44;19.92;;;10.63;;
45618;SDS011;31343;47.520;19.144;2022-11-25T10:56:51;15.73;;;8.13;;
45618;SDS011;31343;47.520;19.144;2022-11-25T10:59:28;17.02;;;9.23;;
45618;SDS011;31343;47.520;19.144;2022-11-25T11:02:09;19.85;;;10.77;;
45618;SDS011;31343;47.520;19.144;2022-11-25T11:04:48;20.63;;;12.10;;
45618;SDS011;31343;47.520;19.144;2022-11-25T11:10:33;22.00;;;10.93;;
45618;SDS011;31343;47.520;19.144;2022-11-25T11:15:31;24.70;;;13.35;;
45618;SDS011;31343;47.520;19.144;2022-11-25T11:20:57;27.63;;;14.27;;
45618;SDS011;31343;47.520;19.144;2022-11-25T11:23:24;29.42;;;14.55;;
45618;SDS011;31343;47.520;19.144;2022-11-25T11:25:59;26.88;;;14.68;;
45618;SDS011;31343;47.520;19.144;2022-11-25T11:38:42;29.33;;;15.73;;
45618;SDS011;31343;47.520;19.144;2022-11-25T11:41:30;29.52;;;15.80;;
45618;SDS011;31343;47.520;19.144;2022-11-25T11:44:06;25.48;;;14.25;;
45618;SDS011;31343;47.520;19.144;2022-11-25T11:49:15;24.08;;;13.55;;
45618;SDS011;31343;47.520;19.144;2022-11-25T11:54:45;23.00;;;13.27;;
45618;SDS011;31343;47.520;19.144;2022-11-25T11:59:55;22.60;;;12.70;;
45618;SDS011;31343;47.520;19.144;2022-11-25T12:05:33;21.38;;;11.93;;
45618;SDS011;31343;47.520;19.144;2022-11-25T12:08:12;21.98;;;12.70;;
45618;SDS011;31343;47.520;19.144;2022-11-25T12:10:52;18.95;;;11.23;;
45618;SDS011;31343;47.520;19.144;2022-11-25T12:13:34;26.00;;;12.85;;
45618;SDS011;31343;47.520;19.144;2022-11-25T12:16:16;19.50;;;12.43;;
45618;SDS011;31343;47.520;19.144;2022-11-25T12:24:25;20.27;;;10.48;;
45618;SDS011;31343;47.520;19.144;2022-11-25T12:34:49;23.00;;;11.27;;
45618;SDS011;31343;47.520;19.144;2022-11-25T12:38:16;18.65;;;10.70;;
45618;SDS011;31343;47.520;19.144;2022-11-25T12:48:41;19.65;;;12.30;;
45618;SDS011;31343;47.520;19.144;2022-11-25T12:51:18;19.27;;;10.88;;
45618;SDS011;31343;47.520;19.144;2022-11-25T12:54:31;18.75;;;12.32;;
45618;SDS011;31343;47.520;19.144;2022-11-25T13:00:08;19.75;;;11.15;;
45618;SDS011;31343;47.520;19.144;2022-11-25T13:05:53;19.83;;;11.50;;
45618;SDS011;31343;47.520;19.144;2022-11-25T13:17:09;20.38;;;11.07;;
45618;SDS011;31343;47.520;19.144;2022-11-25T13:19:37;23.25;;;12.95;;
45618;SDS011;31343;47.520;19.144;2022-11-25T13:24:31;19.58;;;11.57;;
45618;SDS011;31343;47.520;19.144;2022-11-25T13:26:58;19.48;;;10.95;;
45618;SDS011;31343;47.520;19.144;2022-11-25T13:34:28;24.27;;;11.30;;
45618;SDS011;31343;47.520;19.144;2022-11-25T13:36:58;21.17;;;11.32;;
45618;SDS011;31343;47.520;19.144;2022-11-25T13:39:30;22.73;;;10.93;;
45618;SDS011;31343;47.520;19.144;2022-11-25T13:44:25;20.92;;;11.05;;
45618;SDS011;31343;47.520;19.144;2022-11-25T13:46:56;19.77;;;10.32;;
45618;SDS011;31343;47.520;19.144;2022-11-25T13:54:55;17.17;;;10.18;;
45618;SDS011;31343;47.520;19.144;2022-11-25T14:00:05;16.83;;;10.30;;
45618;SDS011;31343;47.520;19.144;2022-11-25T14:02:38;20.75;;;10.65;;
45618;SDS011;31343;47.520;19.144;2022-11-25T14:10:38;17.55;;;9.93;;
45618;SDS011;31343;47.520;19.144;2022-11-25T14:26:52;25.40;;;12.15;;
45618;SDS011;31343;47.520;19.144;2022-11-25T14:29:23;23.77;;;11.27;;
45618;SDS011;31343;47.520;19.144;2022-11-25T14:32:01;28.17;;;11.90;;
45618;SDS011;31343;47.520;19.144;2022-11-25T14:38:33;26.02;;;12.27;;
45618;SDS011;31343;47.520;19.144;2022-11-25T14:43:01;24.80;;;11.57;;
45618;SDS011;31343;47.520;19.144;2022-11-25T14:45:30;24.25;;;11.90;;
45618;SDS011;31343;47.520;19.144;2022-11-25T14:48:10;23.50;;;12.30;;
45618;SDS011;31343;47.520;19.144;2022-11-25T14:51:03;24.17;;;13.82;;
45618;SDS011;31343;47.520;19.144;2022-11-25T14:53:35;22.20;;;11.73;;
45618;SDS011;31343;47.520;19.144;2022-11-25T14:56:09;26.75;;;13.98;;
45618;SDS011;31343;47.520;19.144;2022-11-25T14:58:40;29.67;;;13.70;;
45618;SDS011;31343;47.520;19.144;2022-11-25T15:04:16;26.65;;;14.25;;
45618;SDS011;31343;47.520;19.144;2022-11-25T15:06:52;25.73;;;14.93;;
45618;SDS011;31343;47.520;19.144;2022-11-25T15:09:26;25.80;;;14.95;;
45618;SDS011;31343;47.520;19.144;2022-11-25T15:14:26;28.17;;;15.35;;
45618;SDS011;31343;47.520;19.144;2022-11-25T15:16:57;33.55;;;15.48;;
45618;SDS011;31343;47.520;19.144;2022-11-25T15:19:24;32.97;;;14.73;;
45618;SDS011;31343;47.520;19.144;2022-11-25T15:21:57;27.98;;;14.90;;
45618;SDS011;31343;47.520;19.144;2022-11-25T15:24:25;32.47;;;16.40;;
45618;SDS011;31343;47.520;19.144;2022-11-25T15:26:57;34.58;;;18.75;;
45618;SDS011;31343;47.520;19.144;2022-11-25T15:29:25;28.83;;;16.02;;
45618;SDS011;31343;47.520;19.144;2022-11-25T15:31:52;28.77;;;15.10;;
45618;SDS011;31343;47.520;19.144;2022-11-25T15:34:20;32.83;;;17.10;;
45618;SDS011;31343;47.520;19.144;2022-11-25T15:36:47;34.08;;;17.77;;
45618;SDS011;31343;47.520;19.144;2022-11-25T15:41:49;33.35;;;17.70;;
45618;SDS011;31343;47.520;19.144;2022-11-25T15:44:24;31.58;;;18.05;;
45618;SDS011;31343;47.520;19.144;2022-11-25T15:47:02;34.65;;;19.83;;
45618;SDS011;31343;47.520;19.144;2022-11-25T15:49:31;38.47;;;19.02;;
45618;SDS011;31343;47.520;19.144;2022-11-25T15:52:05;34.92;;;18.92;;
45618;SDS011;31343;47.520;19.144;2022-11-25T15:54:41;32.10;;;17.77;;
45618;SDS011;31343;47.520;19.144;2022-11-25T15:57:17;37.60;;;17.83;;
45618;SDS011;31343;47.520;19.144;2022-11-25T16:00:00;29.88;;;17.02;;
45618;SDS011;31343;47.520;19.144;2022-11-25T16:07:58;36.80;;;19.02;;
45618;SDS011;31343;47.520;19.144;2022-11-25T16:21:20;28.10;;;16.58;;
45618;SDS011;31343;47.520;19.144;2022-11-25T16:24:26;35.25;;;17.77;;
45618;SDS011;31343;47.520;19.144;2022-11-25T16:27:41;33.58;;;17.10;;
45618;SDS011;31343;47.520;19.144;2022-11-25T16:32:38;33.45;;;16.27;;
45618;SDS011;31343;47.520;19.144;2022-11-25T16:35:17;34.75;;;18.15;;
45618;SDS011;31343;47.520;19.144;2022-11-25T16:37:46;33.10;;;17.58;;
45618;SDS011;31343;47.520;19.144;2022-11-25T16:40:12;34.17;;;17.65;;
45618;SDS011;31343;47.520;19.144;2022-11-25T16:42:39;38.25;;;22.17;;
45618;SDS011;31343;47.520;19.144;2022-11-25T16:45:14;41.40;;;18.67;;
45618;SDS011;31343;47.520;19.144;2022-11-25T16:47:45;46.28;;;25.27;;
45618;SDS011;31343;47.520;19.144;2022-11-25T16:50:14;49.90;;;23.63;;
45618;SDS011;31343;47.520;19.144;2022-11-25T16:52:41;40.22;;;22.30;;
45618;SDS011;31343;47.520;19.144;2022-11-25T16:55:07;43.65;;;19.58;;
45618;SDS011;31343;47.520;19.144;2022-11-25T16:57:34;41.53;;;20.38;;
45618;SDS011;31343;47.520;19.144;2022-11-25T17:00:00;33.97;;;18.58;;
45618;SDS011;31343;47.520;19.144;2022-11-25T17:02:32;36.22;;;18.73;;
45618;SDS011;31343;47.520;19.144;2022-11-25T17:05:15;37.67;;;20.52;;
45618;SDS011;31343;47.520;19.144;2022-11-25T17:07:46;33.95;;;18.35;;
45618;SDS011;31343;47.520;19.144;2022-11-25T17:10:14;41.50;;;19.67;;
45618;SDS011;31343;47.520;19.144;2022-11-25T17:12:41;44.53;;;21.77;;
45618;SDS011;31343;47.520;19.144;2022-11-25T17:15:12;38.20;;;21.23;;
45618;SDS011;31343;47.520;19.144;2022-11-25T17:17:41;36.38;;;19.90;;
45618;SDS011;31343;47.520;19.144;2022-11-25T17:20:18;47.47;;;21.88;;
45618;SDS011;31343;47.520;19.144;2022-11-25T17:22:47;37.72;;;20.92;;
45618;SDS011;31343;47.520;19.144;2022-11-25T17:25:14;45.10;;;22.65;;